sensor_id;sensor_type;location;lat;lon;timestamp;P1;durP1;ratioP1;P2;durP2;ratioP2
51718;SDS011;37795;53.236;5.704;2024-01-25T00:01:11;6.80;;;2.25;;
51718;SDS011;37795;53.236;5.704;2024-01-25T00:03:37;9.13;;;2.58;;
51718;SDS011;37795;53.236;5.704;2024-01-25T00:06:04;6.95;;;2.30;;
51718;SDS011;37795;53.236;5.704;2024-01-25T00:08:30;8.80;;;2.63;;
51718;SDS011;37795;53.236;5.704;2024-01-25T00:10:56;9.07;;;2.40;;
51718;SDS011;37795;53.236;5.704;2024-01-25T00:13:22;8.53;;;2.50;;
51718;SDS011;37795;53.236;5.704;2024-01-25T00:15:47;6.73;;;2.57;;
51718;SDS011;37795;53.236;5.704;2024-01-25T00:18:13;6.63;;;2.13;;
51718;SDS011;37795;53.236;5.704;2024-01-25T00:20:39;6.63;;;2.45;;
51718;SDS011;37795;53.236;5.704;2024-01-25T00:23:04;7.10;;;2.27;;
51718;SDS011;37795;53.236;5.704;2024-01-25T00:25:30;7.78;;;2.45;;
51718;SDS011;37795;53.236;5.704;2024-01-25T00:27:56;6.77;;;2.33;;
51718;SDS011;37795;53.236;5.704;2024-01-25T00:30:22;7.13;;;2.40;;
51718;SDS011;37795;53.236;5.704;2024-01-25T00:32:48;7.17;;;2.40;;
51718;SDS011;37795;53.236;5.704;2024-01-25T00:35:14;8.60;;;2.63;;
51718;SDS011;37795;53.236;5.704;2024-01-25T00:37:40;6.38;;;2.35;;
51718;SDS011;37795;53.236;5.704;2024-01-25T00:40:07;7.13;;;2.50;;
51718;SDS011;37795;53.236;5.704;2024-01-25T00:42:43;7.65;;;2.60;;
51718;SDS011;37795;53.236;5.704;2024-01-25T00:45:11;8.45;;;2.83;;
51718;SDS011;37795;53.236;5.704;2024-01-25T00:47:37;6.82;;;2.45;;
51718;SDS011;37795;53.236;5.704;2024-01-25T00:50:03;8.52;;;2.90;;
51718;SDS011;37795;53.236;5.704;2024-01-25T00:52:30;7.85;;;2.40;;
51718;SDS011;37795;53.236;5.704;2024-01-25T00:54:56;8.07;;;2.50;;
51718;SDS011;37795;53.236;5.704;2024-01-25T00:57:22;6.93;;;2.17;;
51718;SDS011;37795;53.236;5.704;2024-01-25T00:59:48;6.93;;;2.05;;
51718;SDS011;37795;53.236;5.704;2024-01-25T01:02:14;7.65;;;2.90;;
51718;SDS011;37795;53.236;5.704;2024-01-25T01:04:40;6.80;;;2.47;;
51718;SDS011;37795;53.236;5.704;2024-01-25T01:07:06;4.93;;;1.95;;
51718;SDS011;37795;53.236;5.704;2024-01-25T01:09:32;7.55;;;2.80;;
51718;SDS011;37795;53.236;5.704;2024-01-25T01:11:58;7.47;;;2.53;;
51718;SDS011;37795;53.236;5.704;2024-01-25T01:14:24;6.38;;;2.50;;
51718;SDS011;37795;53.236;5.704;2024-01-25T01:16:50;6.55;;;2.72;;
51718;SDS011;37795;53.236;5.704;2024-01-25T01:19:16;7.25;;;2.33;;
51718;SDS011;37795;53.236;5.704;2024-01-25T01:21:42;6.88;;;2.03;;
51718;SDS011;37795;53.236;5.704;2024-01-25T01:24:11;8.10;;;2.40;;
51718;SDS011;37795;53.236;5.704;2024-01-25T01:26:37;7.03;;;2.50;;
51718;SDS011;37795;53.236;5.704;2024-01-25T01:29:03;6.65;;;2.72;;
51718;SDS011;37795;53.236;5.704;2024-01-25T01:31:29;6.55;;;2.40;;
51718;SDS011;37795;53.236;5.704;2024-01-25T01:33:55;6.35;;;2.40;;
51718;SDS011;37795;53.236;5.704;2024-01-25T02:15:26;4.10;;;0.90;;
51718;SDS011;37795;53.236;5.704;2024-01-25T02:17:51;3.40;;;1.35;;
51718;SDS011;37795;53.236;5.704;2024-01-25T02:20:18;5.28;;;1.30;;
51718;SDS011;37795;53.236;5.704;2024-01-25T02:22:44;4.72;;;1.42;;
51718;SDS011;37795;53.236;5.704;2024-01-25T02:25:09;4.43;;;1.52;;
51718;SDS011;37795;53.236;5.704;2024-01-25T02:27:35;3.70;;;1.20;;
51718;SDS011;37795;53.236;5.704;2024-01-25T02:30:04;5.50;;;1.10;;
51718;SDS011;37795;53.236;5.704;2024-01-25T02:32:32;6.75;;;1.40;;
51718;SDS011;37795;53.236;5.704;2024-01-25T02:34:58;3.67;;;1.10;;
51718;SDS011;37795;53.236;5.704;2024-01-25T02:37:23;3.60;;;0.93;;
51718;SDS011;37795;53.236;5.704;2024-01-25T02:39:49;6.65;;;1.35;;
51718;SDS011;37795;53.236;5.704;2024-01-25T02:42:16;5.25;;;1.52;;
51718;SDS011;37795;53.236;5.704;2024-01-25T02:44:42;5.80;;;1.38;;
51718;SDS011;37795;53.236;5.704;2024-01-25T02:47:08;5.20;;;1.33;;
51718;SDS011;37795;53.236;5.704;2024-01-25T02:49:34;6.13;;;1.10;;
51718;SDS011;37795;53.236;5.704;2024-01-25T02:51:59;4.00;;;1.27;;
51718;SDS011;37795;53.236;5.704;2024-01-25T02:54:25;4.45;;;1.17;;
51718;SDS011;37795;53.236;5.704;2024-01-25T02:56:51;3.55;;;1.38;;
51718;SDS011;37795;53.236;5.704;2024-01-25T02:59:17;3.35;;;1.23;;
51718;SDS011;37795;53.236;5.704;2024-01-25T03:01:43;5.13;;;1.15;;
51718;SDS011;37795;53.236;5.704;2024-01-25T03:04:10;2.60;;;1.15;;
51718;SDS011;37795;53.236;5.704;2024-01-25T03:06:36;4.93;;;1.30;;
51718;SDS011;37795;53.236;5.704;2024-01-25T03:09:02;3.53;;;1.10;;
51718;SDS011;37795;53.236;5.704;2024-01-25T03:11:30;4.45;;;1.20;;
51718;SDS011;37795;53.236;5.704;2024-01-25T03:13:56;3.63;;;1.40;;
51718;SDS011;37795;53.236;5.704;2024-01-25T03:16:22;6.95;;;1.27;;
51718;SDS011;37795;53.236;5.704;2024-01-25T03:18:48;3.65;;;1.25;;
51718;SDS011;37795;53.236;5.704;2024-01-25T03:21:14;5.53;;;1.30;;
51718;SDS011;37795;53.236;5.704;2024-01-25T03:23:39;4.05;;;1.10;;
51718;SDS011;37795;53.236;5.704;2024-01-25T03:26:05;5.07;;;1.55;;
51718;SDS011;37795;53.236;5.704;2024-01-25T03:28:31;5.63;;;1.30;;
51718;SDS011;37795;53.236;5.704;2024-01-25T03:30:59;2.40;;;0.93;;
51718;SDS011;37795;53.236;5.704;2024-01-25T03:33:25;3.45;;;1.13;;
51718;SDS011;37795;53.236;5.704;2024-01-25T03:35:52;4.32;;;1.55;;
51718;SDS011;37795;53.236;5.704;2024-01-25T03:38:17;4.60;;;1.25;;
51718;SDS011;37795;53.236;5.704;2024-01-25T03:40:43;4.57;;;1.13;;
51718;SDS011;37795;53.236;5.704;2024-01-25T03:43:09;5.15;;;0.98;;
51718;SDS011;37795;53.236;5.704;2024-01-25T03:45:35;5.10;;;1.10;;
51718;SDS011;37795;53.236;5.704;2024-01-25T03:48:00;5.07;;;1.38;;
51718;SDS011;37795;53.236;5.704;2024-01-25T03:50:26;3.40;;;1.30;;
51718;SDS011;37795;53.236;5.704;2024-01-25T03:52:52;4.15;;;1.20;;
51718;SDS011;37795;53.236;5.704;2024-01-25T03:55:18;3.38;;;1.00;;
51718;SDS011;37795;53.236;5.704;2024-01-25T03:57:44;4.68;;;1.30;;
51718;SDS011;37795;53.236;5.704;2024-01-25T04:00:10;4.38;;;1.17;;
51718;SDS011;37795;53.236;5.704;2024-01-25T04:02:36;4.35;;;1.05;;
51718;SDS011;37795;53.236;5.704;2024-01-25T04:05:02;3.40;;;1.10;;
51718;SDS011;37795;53.236;5.704;2024-01-25T04:07:29;3.28;;;1.00;;
51718;SDS011;37795;53.236;5.704;2024-01-25T04:09:54;5.80;;;1.13;;
51718;SDS011;37795;53.236;5.704;2024-01-25T04:12:20;3.83;;;1.13;;
51718;SDS011;37795;53.236;5.704;2024-01-25T04:14:46;3.97;;;1.10;;
51718;SDS011;37795;53.236;5.704;2024-01-25T04:17:11;2.88;;;0.95;;
51718;SDS011;37795;53.236;5.704;2024-01-25T04:19:37;4.47;;;0.90;;
51718;SDS011;37795;53.236;5.704;2024-01-25T04:22:03;3.53;;;1.08;;
51718;SDS011;37795;53.236;5.704;2024-01-25T04:24:29;3.42;;;0.95;;
51718;SDS011;37795;53.236;5.704;2024-01-25T04:26:54;3.67;;;0.70;;
51718;SDS011;37795;53.236;5.704;2024-01-25T04:29:20;5.22;;;1.20;;
51718;SDS011;37795;53.236;5.704;2024-01-25T04:31:46;4.80;;;0.90;;
51718;SDS011;37795;53.236;5.704;2024-01-25T04:34:13;3.35;;;0.95;;
51718;SDS011;37795;53.236;5.704;2024-01-25T04:36:40;4.03;;;0.80;;
51718;SDS011;37795;53.236;5.704;2024-01-25T04:39:05;5.97;;;1.25;;
51718;SDS011;37795;53.236;5.704;2024-01-25T04:41:31;4.70;;;1.10;;
51718;SDS011;37795;53.236;5.704;2024-01-25T04:43:57;3.70;;;0.98;;
51718;SDS011;37795;53.236;5.704;2024-01-25T04:46:23;3.90;;;0.82;;
51718;SDS011;37795;53.236;5.704;2024-01-25T04:48:48;3.15;;;0.98;;
51718;SDS011;37795;53.236;5.704;2024-01-25T04:51:15;2.28;;;0.68;;
51718;SDS011;37795;53.236;5.704;2024-01-25T04:53:42;2.95;;;0.77;;
51718;SDS011;37795;53.236;5.704;2024-01-25T04:56:07;2.67;;;0.80;;
51718;SDS011;37795;53.236;5.704;2024-01-25T04:58:33;4.30;;;1.10;;
51718;SDS011;37795;53.236;5.704;2024-01-25T05:00:59;5.05;;;1.13;;
51718;SDS011;37795;53.236;5.704;2024-01-25T05:03:25;6.78;;;1.58;;
51718;SDS011;37795;53.236;5.704;2024-01-25T05:05:50;3.75;;;1.10;;
51718;SDS011;37795;53.236;5.704;2024-01-25T05:08:16;5.55;;;1.15;;
51718;SDS011;37795;53.236;5.704;2024-01-25T05:10:42;5.32;;;1.10;;
51718;SDS011;37795;53.236;5.704;2024-01-25T05:13:08;3.85;;;1.00;;
51718;SDS011;37795;53.236;5.704;2024-01-25T05:15:34;4.65;;;0.98;;
51718;SDS011;37795;53.236;5.704;2024-01-25T05:18:01;3.42;;;0.88;;
51718;SDS011;37795;53.236;5.704;2024-01-25T05:20:27;3.03;;;1.05;;
51718;SDS011;37795;53.236;5.704;2024-01-25T05:22:57;3.17;;;0.85;;
51718;SDS011;37795;53.236;5.704;2024-01-25T05:25:23;4.32;;;1.20;;
51718;SDS011;37795;53.236;5.704;2024-01-25T05:27:51;3.08;;;0.77;;
51718;SDS011;37795;53.236;5.704;2024-01-25T05:30:17;5.05;;;1.10;;
51718;SDS011;37795;53.236;5.704;2024-01-25T05:32:43;2.88;;;0.90;;
51718;SDS011;37795;53.236;5.704;2024-01-25T05:35:09;3.53;;;0.90;;
51718;SDS011;37795;53.236;5.704;2024-01-25T05:37:35;4.35;;;1.20;;
51718;SDS011;37795;53.236;5.704;2024-01-25T05:40:00;2.95;;;1.00;;
51718;SDS011;37795;53.236;5.704;2024-01-25T05:42:26;4.43;;;1.13;;
51718;SDS011;37795;53.236;5.704;2024-01-25T05:44:52;3.92;;;0.85;;
51718;SDS011;37795;53.236;5.704;2024-01-25T05:47:18;3.88;;;1.20;;
51718;SDS011;37795;53.236;5.704;2024-01-25T05:49:44;4.20;;;1.00;;
51718;SDS011;37795;53.236;5.704;2024-01-25T05:52:09;3.00;;;0.98;;
51718;SDS011;37795;53.236;5.704;2024-01-25T05:54:35;3.50;;;1.33;;
51718;SDS011;37795;53.236;5.704;2024-01-25T05:57:01;3.63;;;0.90;;
51718;SDS011;37795;53.236;5.704;2024-01-25T05:59:27;4.25;;;1.25;;
51718;SDS011;37795;53.236;5.704;2024-01-25T06:01:52;3.50;;;0.90;;
51718;SDS011;37795;53.236;5.704;2024-01-25T06:04:18;3.20;;;1.42;;
51718;SDS011;37795;53.236;5.704;2024-01-25T06:06:44;4.68;;;0.90;;
51718;SDS011;37795;53.236;5.704;2024-01-25T06:09:10;2.88;;;1.13;;
51718;SDS011;37795;53.236;5.704;2024-01-25T06:11:35;3.58;;;0.80;;
51718;SDS011;37795;53.236;5.704;2024-01-25T06:14:02;6.22;;;1.40;;
51718;SDS011;37795;53.236;5.704;2024-01-25T06:16:30;3.25;;;0.73;;
51718;SDS011;37795;53.236;5.704;2024-01-25T06:18:55;3.45;;;0.82;;
51718;SDS011;37795;53.236;5.704;2024-01-25T06:21:21;3.95;;;0.80;;
51718;SDS011;37795;53.236;5.704;2024-01-25T06:23:47;4.32;;;1.00;;
51718;SDS011;37795;53.236;5.704;2024-01-25T06:26:12;2.70;;;0.90;;
51718;SDS011;37795;53.236;5.704;2024-01-25T06:28:38;5.28;;;1.38;;
51718;SDS011;37795;53.236;5.704;2024-01-25T06:31:05;3.95;;;1.17;;
51718;SDS011;37795;53.236;5.704;2024-01-25T06:33:31;4.05;;;1.10;;
51718;SDS011;37795;53.236;5.704;2024-01-25T06:35:57;2.58;;;1.00;;
51718;SDS011;37795;53.236;5.704;2024-01-25T06:38:23;4.15;;;1.00;;
51718;SDS011;37795;53.236;5.704;2024-01-25T06:40:48;3.08;;;0.80;;
51718;SDS011;37795;53.236;5.704;2024-01-25T06:43:14;3.10;;;0.90;;
51718;SDS011;37795;53.236;5.704;2024-01-25T06:51:54;3.38;;;1.02;;
51718;SDS011;37795;53.236;5.704;2024-01-25T06:54:20;3.63;;;1.20;;
51718;SDS011;37795;53.236;5.704;2024-01-25T06:56:46;3.95;;;1.15;;
51718;SDS011;37795;53.236;5.704;2024-01-25T06:59:11;6.25;;;1.20;;
51718;SDS011;37795;53.236;5.704;2024-01-25T07:01:37;3.28;;;1.00;;
51718;SDS011;37795;53.236;5.704;2024-01-25T07:04:03;2.80;;;0.90;;
51718;SDS011;37795;53.236;5.704;2024-01-25T07:06:29;2.72;;;0.90;;
51718;SDS011;37795;53.236;5.704;2024-01-25T07:08:55;4.45;;;1.20;;
51718;SDS011;37795;53.236;5.704;2024-01-25T07:11:21;3.50;;;0.93;;
51718;SDS011;37795;53.236;5.704;2024-01-25T07:13:47;2.25;;;0.77;;
51718;SDS011;37795;53.236;5.704;2024-01-25T07:16:12;3.85;;;1.00;;
51718;SDS011;37795;53.236;5.704;2024-01-25T07:18:38;3.05;;;0.77;;
51718;SDS011;37795;53.236;5.704;2024-01-25T07:21:04;4.05;;;0.93;;
51718;SDS011;37795;53.236;5.704;2024-01-25T07:23:30;2.40;;;0.90;;
51718;SDS011;37795;53.236;5.704;2024-01-25T07:25:56;2.83;;;0.90;;
51718;SDS011;37795;53.236;5.704;2024-01-25T07:28:21;1.85;;;0.73;;
51718;SDS011;37795;53.236;5.704;2024-01-25T07:30:48;2.13;;;0.90;;
51718;SDS011;37795;53.236;5.704;2024-01-25T07:33:15;4.22;;;1.42;;
51718;SDS011;37795;53.236;5.704;2024-01-25T07:35:41;2.15;;;0.88;;
51718;SDS011;37795;53.236;5.704;2024-01-25T07:38:14;4.40;;;1.10;;
51718;SDS011;37795;53.236;5.704;2024-01-25T07:40:40;3.55;;;0.90;;
51718;SDS011;37795;53.236;5.704;2024-01-25T07:43:06;3.35;;;1.00;;
51718;SDS011;37795;53.236;5.704;2024-01-25T07:45:31;3.65;;;1.17;;
51718;SDS011;37795;53.236;5.704;2024-01-25T07:47:57;3.80;;;0.95;;
51718;SDS011;37795;53.236;5.704;2024-01-25T07:50:24;4.38;;;0.68;;
51718;SDS011;37795;53.236;5.704;2024-01-25T07:52:49;3.85;;;0.75;;
51718;SDS011;37795;53.236;5.704;2024-01-25T07:55:15;3.53;;;0.73;;
51718;SDS011;37795;53.236;5.704;2024-01-25T07:57:41;2.15;;;0.75;;
51718;SDS011;37795;53.236;5.704;2024-01-25T08:00:07;3.67;;;1.10;;
51718;SDS011;37795;53.236;5.704;2024-01-25T08:02:37;3.65;;;1.40;;
51718;SDS011;37795;53.236;5.704;2024-01-25T08:05:06;3.47;;;1.42;;
51718;SDS011;37795;53.236;5.704;2024-01-25T08:07:32;3.97;;;1.20;;
51718;SDS011;37795;53.236;5.704;2024-01-25T08:09:58;4.85;;;1.40;;
51718;SDS011;37795;53.236;5.704;2024-01-25T08:12:24;3.95;;;1.70;;
51718;SDS011;37795;53.236;5.704;2024-01-25T08:14:50;3.40;;;1.20;;
51718;SDS011;37795;53.236;5.704;2024-01-25T08:17:16;3.72;;;1.52;;
51718;SDS011;37795;53.236;5.704;2024-01-25T08:19:42;3.65;;;1.30;;
51718;SDS011;37795;53.236;5.704;2024-01-25T08:22:08;3.85;;;1.20;;
51718;SDS011;37795;53.236;5.704;2024-01-25T08:24:35;5.80;;;1.40;;
51718;SDS011;37795;53.236;5.704;2024-01-25T08:27:00;3.73;;;1.37;;
51718;SDS011;37795;53.236;5.704;2024-01-25T08:29:26;4.23;;;1.20;;
51718;SDS011;37795;53.236;5.704;2024-01-25T08:31:52;3.65;;;1.30;;
51718;SDS011;37795;53.236;5.704;2024-01-25T08:34:18;4.40;;;1.35;;
51718;SDS011;37795;53.236;5.704;2024-01-25T08:36:43;4.47;;;1.33;;
51718;SDS011;37795;53.236;5.704;2024-01-25T08:39:09;3.67;;;1.13;;
51718;SDS011;37795;53.236;5.704;2024-01-25T08:41:35;3.40;;;1.10;;
51718;SDS011;37795;53.236;5.704;2024-01-25T08:44:00;4.85;;;1.40;;
51718;SDS011;37795;53.236;5.704;2024-01-25T08:46:26;3.95;;;1.00;;
51718;SDS011;37795;53.236;5.704;2024-01-25T08:48:52;3.53;;;1.13;;
51718;SDS011;37795;53.236;5.704;2024-01-25T08:51:17;3.43;;;1.13;;
51718;SDS011;37795;53.236;5.704;2024-01-25T08:53:43;2.95;;;1.10;;
51718;SDS011;37795;53.236;5.704;2024-01-25T08:56:09;2.92;;;1.50;;
51718;SDS011;37795;53.236;5.704;2024-01-25T08:58:35;3.28;;;1.20;;
51718;SDS011;37795;53.236;5.704;2024-01-25T09:01:00;3.33;;;1.40;;
51718;SDS011;37795;53.236;5.704;2024-01-25T09:03:26;3.00;;;1.10;;
51718;SDS011;37795;53.236;5.704;2024-01-25T09:05:52;3.33;;;1.23;;
51718;SDS011;37795;53.236;5.704;2024-01-25T09:08:18;4.10;;;1.30;;
51718;SDS011;37795;53.236;5.704;2024-01-25T09:10:43;2.78;;;1.13;;
51718;SDS011;37795;53.236;5.704;2024-01-25T09:13:09;3.30;;;1.10;;
51718;SDS011;37795;53.236;5.704;2024-01-25T09:15:35;3.20;;;1.20;;
51718;SDS011;37795;53.236;5.704;2024-01-25T09:18:01;3.13;;;1.00;;
51718;SDS011;37795;53.236;5.704;2024-01-25T09:20:27;3.25;;;1.17;;
51718;SDS011;37795;53.236;5.704;2024-01-25T09:22:53;2.70;;;0.98;;
51718;SDS011;37795;53.236;5.704;2024-01-25T09:25:19;3.15;;;1.02;;
51718;SDS011;37795;53.236;5.704;2024-01-25T09:27:45;3.17;;;1.10;;
51718;SDS011;37795;53.236;5.704;2024-01-25T09:30:10;3.38;;;1.00;;
51718;SDS011;37795;53.236;5.704;2024-01-25T09:32:37;3.42;;;1.13;;
51718;SDS011;37795;53.236;5.704;2024-01-25T09:35:02;3.60;;;1.10;;
51718;SDS011;37795;53.236;5.704;2024-01-25T09:37:28;3.40;;;1.20;;
51718;SDS011;37795;53.236;5.704;2024-01-25T09:39:54;2.60;;;1.10;;
51718;SDS011;37795;53.236;5.704;2024-01-25T09:42:19;3.40;;;1.00;;
51718;SDS011;37795;53.236;5.704;2024-01-25T09:44:45;3.53;;;1.30;;
51718;SDS011;37795;53.236;5.704;2024-01-25T09:47:11;2.83;;;0.90;;
51718;SDS011;37795;53.236;5.704;2024-01-25T09:49:37;3.10;;;1.17;;
51718;SDS011;37795;53.236;5.704;2024-01-25T09:52:03;3.28;;;1.10;;
51718;SDS011;37795;53.236;5.704;2024-01-25T09:54:33;3.83;;;1.20;;
51718;SDS011;37795;53.236;5.704;2024-01-25T09:57:03;4.18;;;1.60;;
51718;SDS011;37795;53.236;5.704;2024-01-25T09:59:49;3.83;;;1.27;;
51718;SDS011;37795;53.236;5.704;2024-01-25T10:02:20;3.20;;;1.15;;
51718;SDS011;37795;53.236;5.704;2024-01-25T10:04:51;2.83;;;1.00;;
51718;SDS011;37795;53.236;5.704;2024-01-25T10:07:34;2.55;;;1.27;;
51718;SDS011;37795;53.236;5.704;2024-01-25T10:10:11;2.63;;;0.90;;
51718;SDS011;37795;53.236;5.704;2024-01-25T10:12:38;2.63;;;0.88;;
51718;SDS011;37795;53.236;5.704;2024-01-25T10:15:05;3.45;;;0.95;;
51718;SDS011;37795;53.236;5.704;2024-01-25T10:17:31;3.80;;;1.42;;
51718;SDS011;37795;53.236;5.704;2024-01-25T10:19:57;3.13;;;1.10;;
51718;SDS011;37795;53.236;5.704;2024-01-25T10:22:24;3.58;;;1.50;;
51718;SDS011;37795;53.236;5.704;2024-01-25T10:24:49;5.23;;;1.40;;
51718;SDS011;37795;53.236;5.704;2024-01-25T10:27:15;3.93;;;1.20;;
51718;SDS011;37795;53.236;5.704;2024-01-25T10:29:42;4.45;;;1.23;;
51718;SDS011;37795;53.236;5.704;2024-01-25T10:32:08;4.55;;;1.48;;
51718;SDS011;37795;53.236;5.704;2024-01-25T10:34:36;3.88;;;1.27;;
51718;SDS011;37795;53.236;5.704;2024-01-25T10:37:03;2.75;;;0.93;;
51718;SDS011;37795;53.236;5.704;2024-01-25T10:39:31;3.67;;;1.13;;
51718;SDS011;37795;53.236;5.704;2024-01-25T10:41:58;3.30;;;1.17;;
51718;SDS011;37795;53.236;5.704;2024-01-25T10:44:24;3.63;;;1.02;;
51718;SDS011;37795;53.236;5.704;2024-01-25T10:51:55;3.80;;;1.60;;
51718;SDS011;37795;53.236;5.704;2024-01-25T10:54:21;3.63;;;1.60;;
51718;SDS011;37795;53.236;5.704;2024-01-25T10:56:47;3.23;;;1.40;;
51718;SDS011;37795;53.236;5.704;2024-01-25T10:59:13;3.63;;;1.60;;
51718;SDS011;37795;53.236;5.704;2024-01-25T11:01:45;4.70;;;1.80;;
51718;SDS011;37795;53.236;5.704;2024-01-25T11:04:17;4.22;;;1.50;;
51718;SDS011;37795;53.236;5.704;2024-01-25T11:06:44;4.90;;;1.50;;
51718;SDS011;37795;53.236;5.704;2024-01-25T11:09:11;3.58;;;1.40;;
51718;SDS011;37795;53.236;5.704;2024-01-25T11:11:45;4.53;;;1.58;;
51718;SDS011;37795;53.236;5.704;2024-01-25T11:14:13;3.60;;;1.40;;
51718;SDS011;37795;53.236;5.704;2024-01-25T11:16:41;3.58;;;1.40;;
51718;SDS011;37795;53.236;5.704;2024-01-25T11:19:15;3.27;;;1.50;;
51718;SDS011;37795;53.236;5.704;2024-01-25T11:21:47;4.80;;;1.42;;
51718;SDS011;37795;53.236;5.704;2024-01-25T11:24:21;2.97;;;1.30;;
51718;SDS011;37795;53.236;5.704;2024-01-25T11:26:51;3.45;;;1.50;;
51718;SDS011;37795;53.236;5.704;2024-01-25T11:29:19;3.28;;;1.40;;
51718;SDS011;37795;53.236;5.704;2024-01-25T11:31:48;4.85;;;1.55;;
51718;SDS011;37795;53.236;5.704;2024-01-25T11:34:15;3.60;;;1.60;;
51718;SDS011;37795;53.236;5.704;2024-01-25T11:36:42;2.63;;;1.30;;
51718;SDS011;37795;53.236;5.704;2024-01-25T11:39:08;3.20;;;1.50;;
51718;SDS011;37795;53.236;5.704;2024-01-25T11:41:35;3.70;;;1.27;;
51718;SDS011;37795;53.236;5.704;2024-01-25T11:44:01;3.15;;;1.30;;
51718;SDS011;37795;53.236;5.704;2024-01-25T11:46:28;3.00;;;1.30;;
51718;SDS011;37795;53.236;5.704;2024-01-25T11:48:55;3.10;;;1.30;;
51718;SDS011;37795;53.236;5.704;2024-01-25T11:51:20;3.22;;;1.23;;
51718;SDS011;37795;53.236;5.704;2024-01-25T11:53:47;3.30;;;1.40;;
51718;SDS011;37795;53.236;5.704;2024-01-25T11:56:13;2.70;;;1.48;;
51718;SDS011;37795;53.236;5.704;2024-01-25T11:58:42;3.55;;;1.30;;
51718;SDS011;37795;53.236;5.704;2024-01-25T12:01:10;2.65;;;1.38;;
51718;SDS011;37795;53.236;5.704;2024-01-25T12:03:37;2.65;;;1.30;;
51718;SDS011;37795;53.236;5.704;2024-01-25T12:06:04;3.23;;;1.27;;
51718;SDS011;37795;53.236;5.704;2024-01-25T12:08:33;2.63;;;1.30;;
51718;SDS011;37795;53.236;5.704;2024-01-25T12:11:08;3.83;;;1.30;;
51718;SDS011;37795;53.236;5.704;2024-01-25T12:13:35;3.28;;;1.88;;
51718;SDS011;37795;53.236;5.704;2024-01-25T12:16:04;2.25;;;1.10;;
51718;SDS011;37795;53.236;5.704;2024-01-25T12:18:30;3.07;;;1.20;;
51718;SDS011;37795;53.236;5.704;2024-01-25T12:21:05;3.20;;;1.35;;
51718;SDS011;37795;53.236;5.704;2024-01-25T12:23:32;4.10;;;1.52;;
51718;SDS011;37795;53.236;5.704;2024-01-25T12:26:05;3.70;;;1.40;;
51718;SDS011;37795;53.236;5.704;2024-01-25T12:28:32;3.75;;;1.40;;
51718;SDS011;37795;53.236;5.704;2024-01-25T12:31:01;3.22;;;1.52;;
51718;SDS011;37795;53.236;5.704;2024-01-25T12:33:28;3.55;;;1.20;;
51718;SDS011;37795;53.236;5.704;2024-01-25T12:35:54;2.95;;;1.17;;
51718;SDS011;37795;53.236;5.704;2024-01-25T12:38:23;2.50;;;1.23;;
51718;SDS011;37795;53.236;5.704;2024-01-25T12:40:49;2.45;;;1.33;;
51718;SDS011;37795;53.236;5.704;2024-01-25T12:43:16;3.22;;;1.10;;
51718;SDS011;37795;53.236;5.704;2024-01-25T12:45:42;2.65;;;1.30;;
51718;SDS011;37795;53.236;5.704;2024-01-25T12:48:08;3.33;;;1.27;;
51718;SDS011;37795;53.236;5.704;2024-01-25T12:50:34;2.83;;;1.30;;
51718;SDS011;37795;53.236;5.704;2024-01-25T12:53:00;2.55;;;1.15;;
51718;SDS011;37795;53.236;5.704;2024-01-25T12:55:27;2.90;;;1.30;;
51718;SDS011;37795;53.236;5.704;2024-01-25T12:57:54;2.77;;;1.30;;
51718;SDS011;37795;53.236;5.704;2024-01-25T13:00:21;2.50;;;1.40;;
51718;SDS011;37795;53.236;5.704;2024-01-25T13:02:47;4.70;;;1.40;;
51718;SDS011;37795;53.236;5.704;2024-01-25T13:05:13;2.28;;;1.02;;
51718;SDS011;37795;53.236;5.704;2024-01-25T13:07:39;3.45;;;1.40;;
51718;SDS011;37795;53.236;5.704;2024-01-25T13:10:05;2.55;;;1.38;;
51718;SDS011;37795;53.236;5.704;2024-01-25T13:12:31;2.75;;;1.30;;
51718;SDS011;37795;53.236;5.704;2024-01-25T13:14:57;3.10;;;1.40;;
51718;SDS011;37795;53.236;5.704;2024-01-25T13:17:23;4.10;;;1.30;;
51718;SDS011;37795;53.236;5.704;2024-01-25T13:19:50;2.77;;;1.10;;
51718;SDS011;37795;53.236;5.704;2024-01-25T13:22:16;2.73;;;1.10;;
51718;SDS011;37795;53.236;5.704;2024-01-25T13:24:47;2.42;;;1.15;;
51718;SDS011;37795;53.236;5.704;2024-01-25T13:27:13;2.42;;;1.15;;
51718;SDS011;37795;53.236;5.704;2024-01-25T13:29:38;2.60;;;1.30;;
51718;SDS011;37795;53.236;5.704;2024-01-25T13:32:04;3.97;;;1.40;;
51718;SDS011;37795;53.236;5.704;2024-01-25T13:34:30;2.33;;;1.10;;
51718;SDS011;37795;53.236;5.704;2024-01-25T13:36:56;3.20;;;1.20;;
51718;SDS011;37795;53.236;5.704;2024-01-25T13:39:21;1.60;;;0.90;;
51718;SDS011;37795;53.236;5.704;2024-01-25T13:41:47;2.50;;;1.25;;
51718;SDS011;37795;53.236;5.704;2024-01-25T13:44:14;2.45;;;1.13;;
51718;SDS011;37795;53.236;5.704;2024-01-25T13:46:40;2.38;;;1.25;;
51718;SDS011;37795;53.236;5.704;2024-01-25T13:49:05;2.87;;;1.30;;
51718;SDS011;37795;53.236;5.704;2024-01-25T13:51:31;3.55;;;1.25;;
51718;SDS011;37795;53.236;5.704;2024-01-25T13:53:57;2.45;;;1.25;;
51718;SDS011;37795;53.236;5.704;2024-01-25T13:56:22;3.08;;;1.35;;
51718;SDS011;37795;53.236;5.704;2024-01-25T13:58:48;2.43;;;1.10;;
51718;SDS011;37795;53.236;5.704;2024-01-25T14:01:14;2.77;;;1.27;;
51718;SDS011;37795;53.236;5.704;2024-01-25T14:03:39;1.88;;;1.05;;
51718;SDS011;37795;53.236;5.704;2024-01-25T14:06:05;3.08;;;1.20;;
51718;SDS011;37795;53.236;5.704;2024-01-25T14:08:34;4.53;;;1.17;;
51718;SDS011;37795;53.236;5.704;2024-01-25T14:11:01;2.90;;;1.30;;
51718;SDS011;37795;53.236;5.704;2024-01-25T14:13:27;2.03;;;1.10;;
51718;SDS011;37795;53.236;5.704;2024-01-25T14:15:53;2.20;;;1.00;;
51718;SDS011;37795;53.236;5.704;2024-01-25T14:18:18;3.10;;;1.10;;
51718;SDS011;37795;53.236;5.704;2024-01-25T14:20:44;3.07;;;1.50;;
51718;SDS011;37795;53.236;5.704;2024-01-25T14:23:10;2.55;;;1.30;;
51718;SDS011;37795;53.236;5.704;2024-01-25T14:25:36;3.08;;;1.30;;
51718;SDS011;37795;53.236;5.704;2024-01-25T14:28:01;2.63;;;1.30;;
51718;SDS011;37795;53.236;5.704;2024-01-25T14:30:27;2.17;;;1.03;;
51718;SDS011;37795;53.236;5.704;2024-01-25T14:32:54;2.53;;;1.17;;
51718;SDS011;37795;53.236;5.704;2024-01-25T14:35:20;2.17;;;1.10;;
51718;SDS011;37795;53.236;5.704;2024-01-25T14:37:53;2.63;;;1.20;;
51718;SDS011;37795;53.236;5.704;2024-01-25T14:40:21;2.22;;;1.08;;
51718;SDS011;37795;53.236;5.704;2024-01-25T14:42:48;1.73;;;0.93;;
51718;SDS011;37795;53.236;5.704;2024-01-25T14:45:13;2.70;;;1.00;;
51718;SDS011;37795;53.236;5.704;2024-01-25T14:47:39;2.87;;;1.00;;
51718;SDS011;37795;53.236;5.704;2024-01-25T14:50:05;1.93;;;1.03;;
51718;SDS011;37795;53.236;5.704;2024-01-25T14:52:32;2.22;;;1.30;;
51718;SDS011;37795;53.236;5.704;2024-01-25T14:55:02;2.88;;;1.30;;
51718;SDS011;37795;53.236;5.704;2024-01-25T14:57:29;2.60;;;1.10;;
51718;SDS011;37795;53.236;5.704;2024-01-25T14:59:55;3.20;;;1.40;;
51718;SDS011;37795;53.236;5.704;2024-01-25T15:02:21;2.80;;;1.03;;
51718;SDS011;37795;53.236;5.704;2024-01-25T15:04:46;3.03;;;1.30;;
51718;SDS011;37795;53.236;5.704;2024-01-25T15:07:12;2.75;;;1.10;;
51718;SDS011;37795;53.236;5.704;2024-01-25T15:09:39;2.67;;;1.20;;
51718;SDS011;37795;53.236;5.704;2024-01-25T15:12:05;2.95;;;1.38;;
51718;SDS011;37795;53.236;5.704;2024-01-25T15:14:33;3.85;;;1.50;;
51718;SDS011;37795;53.236;5.704;2024-01-25T15:16:59;2.60;;;1.20;;
51718;SDS011;37795;53.236;5.704;2024-01-25T15:19:25;2.40;;;1.10;;
51718;SDS011;37795;53.236;5.704;2024-01-25T15:21:50;1.90;;;1.00;;
51718;SDS011;37795;53.236;5.704;2024-01-25T15:24:16;3.00;;;1.40;;
51718;SDS011;37795;53.236;5.704;2024-01-25T15:26:42;2.95;;;1.10;;
51718;SDS011;37795;53.236;5.704;2024-01-25T15:29:08;2.75;;;1.08;;
51718;SDS011;37795;53.236;5.704;2024-01-25T15:31:34;3.35;;;1.10;;
51718;SDS011;37795;53.236;5.704;2024-01-25T15:34:00;2.92;;;1.50;;